sensor_id;sensor_type;location;lat;lon;timestamp;pressure;altitude;pressure_sealevel;temperature;humidity
58245;BME280;44550;43.864;25.986;2023-04-19T00:03:39;100806.00;;;9.59;100.00
58245;BME280;44550;43.864;25.986;2023-04-19T00:07:42;100801.03;;;9.78;100.00
58245;BME280;44550;43.864;25.986;2023-04-19T00:11:43;100793.28;;;9.87;100.00
58245;BME280;44550;43.864;25.986;2023-04-19T00:15:46;100793.28;;;9.88;100.00
58245;BME280;44550;43.864;25.986;2023-04-19T00:19:52;100796.72;;;9.83;100.00
58245;BME280;44550;43.864;25.986;2023-04-19T00:23:53;100795.00;;;9.85;100.00
58245;BME280;44550;43.864;25.986;2023-04-19T00:27:54;100795.03;;;9.89;100.00
58245;BME280;44550;43.864;25.986;2023-04-19T00:31:56;100794.25;;;9.97;100.00
58245;BME280;44550;43.864;25.986;2023-04-19T00:36:07;100795.47;;;10.31;100.00
58245;BME280;44550;43.864;25.986;2023-04-19T00:40:08;100796.53;;;10.54;100.00
58245;BME280;44550;43.864;25.986;2023-04-19T00:44:15;100782.75;;;10.74;100.00
58245;BME280;44550;43.864;25.986;2023-04-19T00:48:25;100787.13;;;10.78;100.00
58245;BME280;44550;43.864;25.986;2023-04-19T00:52:33;100787.19;;;10.87;100.00
58245;BME280;44550;43.864;25.986;2023-04-19T00:56:35;100783.75;;;10.94;100.00
58245;BME280;44550;43.864;25.986;2023-04-19T01:00:38;100785.44;;;10.89;100.00
58245;BME280;44550;43.864;25.986;2023-04-19T01:04:41;100785.50;;;10.97;100.00
58245;BME280;44550;43.864;25.986;2023-04-19T01:08:44;100786.44;;;11.08;100.00
58245;BME280;44550;43.864;25.986;2023-04-19T01:13:10;100782.03;;;11.01;100.00
58245;BME280;44550;43.864;25.986;2023-04-19T01:17:10;100784.66;;;10.99;100.00
58245;BME280;44550;43.864;25.986;2023-04-19T01:21:15;100781.91;;;10.82;100.00
58245;BME280;44550;43.864;25.986;2023-04-19T01:25:20;100775.75;;;10.76;100.00
58245;BME280;44550;43.864;25.986;2023-04-19T01:29:29;100772.25;;;10.68;100.00
58245;BME280;44550;43.864;25.986;2023-04-19T01:33:32;100766.97;;;10.62;100.00
58245;BME280;44550;43.864;25.986;2023-04-19T01:37:42;100771.50;;;10.87;100.00
58245;BME280;44550;43.864;25.986;2023-04-19T01:41:46;100770.75;;;11.10;100.00
58245;BME280;44550;43.864;25.986;2023-04-19T01:45:51;100768.16;;;11.13;100.00
58245;BME280;44550;43.864;25.986;2023-04-19T01:49:58;100768.03;;;10.96;100.00
58245;BME280;44550;43.864;25.986;2023-04-19T01:54:17;100762.50;;;10.48;100.00
58245;BME280;44550;43.864;25.986;2023-04-19T01:58:26;100765.00;;;10.33;100.00
58245;BME280;44550;43.864;25.986;2023-04-19T02:02:37;100763.94;;;10.16;100.00
58245;BME280;44550;43.864;25.986;2023-04-19T02:06:47;100761.41;;;10.23;100.00
58245;BME280;44550;43.864;25.986;2023-04-19T02:10:49;100766.56;;;10.16;100.00
58245;BME280;44550;43.864;25.986;2023-04-19T02:14:55;100758.38;;;9.79;100.00
58245;BME280;44550;43.864;25.986;2023-04-19T02:19:02;100760.91;;;9.73;100.00
58245;BME280;44550;43.864;25.986;2023-04-19T02:23:07;100755.66;;;9.68;100.00
58245;BME280;44550;43.864;25.986;2023-04-19T02:27:12;100755.63;;;9.65;100.00
58245;BME280;44550;43.864;25.986;2023-04-19T02:31:18;100758.16;;;9.59;100.00
58245;BME280;44550;43.864;25.986;2023-04-19T02:35:20;100754.56;;;9.49;100.00
58245;BME280;44550;43.864;25.986;2023-04-19T02:39:30;100753.84;;;9.61;100.00
58245;BME280;44550;43.864;25.986;2023-04-19T02:43:33;100747.78;;;9.67;100.00
58245;BME280;44550;43.864;25.986;2023-04-19T02:47:37;100738.97;;;9.54;100.00
58245;BME280;44550;43.864;25.986;2023-04-19T02:51:41;100737.19;;;9.53;100.00
58245;BME280;44550;43.864;25.986;2023-04-19T02:55:45;100743.25;;;9.49;100.00
58245;BME280;44550;43.864;25.986;2023-04-19T02:59:52;100739.88;;;9.57;100.00
58245;BME280;44550;43.864;25.986;2023-04-19T03:04:01;100739.22;;;9.77;100.00
58245;BME280;44550;43.864;25.986;2023-04-19T03:08:08;100740.16;;;9.85;100.00
58245;BME280;44550;43.864;25.986;2023-04-19T03:12:18;100746.31;;;9.92;100.00
58245;BME280;44550;43.864;25.986;2023-04-19T03:16:26;100736.81;;;10.03;100.00
58245;BME280;44550;43.864;25.986;2023-04-19T03:20:35;100739.25;;;9.83;100.00
58245;BME280;44550;43.864;25.986;2023-04-19T03:25:00;100743.38;;;9.59;100.00
58245;BME280;44550;43.864;25.986;2023-04-19T03:29:45;100746.72;;;9.48;100.00
58245;BME280;44550;43.864;25.986;2023-04-19T03:34:34;100741.41;;;9.38;100.00
58245;BME280;44550;43.864;25.986;2023-04-19T03:43:11;100745.72;;;9.36;100.00
58245;BME280;44550;43.864;25.986;2023-04-19T03:47:13;100743.06;;;9.33;100.00
58245;BME280;44550;43.864;25.986;2023-04-19T03:51:32;100741.25;;;9.25;100.00
58245;BME280;44550;43.864;25.986;2023-04-19T03:55:37;100736.91;;;9.25;100.00
58245;BME280;44550;43.864;25.986;2023-04-19T03:59:42;100738.63;;;9.25;100.00
58245;BME280;44550;43.864;25.986;2023-04-19T04:03:52;100740.44;;;9.32;100.00
58245;BME280;44550;43.864;25.986;2023-04-19T04:08:06;100746.50;;;9.29;100.00
58245;BME280;44550;43.864;25.986;2023-04-19T04:12:09;100749.13;;;9.29;100.00
58245;BME280;44550;43.864;25.986;2023-04-19T04:16:14;100744.63;;;9.19;100.00
58245;BME280;44550;43.864;25.986;2023-04-19T04:20:21;100742.91;;;9.20;100.00
58245;BME280;44550;43.864;25.986;2023-04-19T04:24:36;100737.56;;;9.09;100.00
58245;BME280;44550;43.864;25.986;2023-04-19T04:28:41;100741.81;;;9.02;100.00
58245;BME280;44550;43.864;25.986;2023-04-19T04:32:50;100740.28;;;9.18;100.00
58245;BME280;44550;43.864;25.986;2023-04-19T04:36:53;100739.47;;;9.21;100.00
58245;BME280;44550;43.864;25.986;2023-04-19T04:40:59;100741.31;;;9.31;100.00
58245;BME280;44550;43.864;25.986;2023-04-19T04:45:00;100745.63;;;9.27;100.00
58245;BME280;44550;43.864;25.986;2023-04-19T04:49:11;100740.38;;;9.26;100.00
58245;BME280;44550;43.864;25.986;2023-04-19T04:53:14;100743.94;;;9.31;100.00
58245;BME280;44550;43.864;25.986;2023-04-19T04:57:19;100742.34;;;9.45;100.00
58245;BME280;44550;43.864;25.986;2023-04-19T05:01:29;100744.19;;;9.54;100.00
58245;BME280;44550;43.864;25.986;2023-04-19T05:05:36;100746.69;;;9.46;100.00
58245;BME280;44550;43.864;25.986;2023-04-19T05:09:42;100745.91;;;9.53;100.00
58245;BME280;44550;43.864;25.986;2023-04-19T05:13:45;100743.31;;;9.55;100.00
58245;BME280;44550;43.864;25.986;2023-04-19T05:17:50;100741.66;;;9.61;100.00
58245;BME280;44550;43.864;25.986;2023-04-19T05:22:01;100741.63;;;9.60;100.00
58245;BME280;44550;43.864;25.986;2023-04-19T05:26:08;100747.78;;;9.63;100.00
58245;BME280;44550;43.864;25.986;2023-04-19T05:30:15;100750.31;;;9.57;100.00
58245;BME280;44550;43.864;25.986;2023-04-19T05:34:20;100708.00;;;9.10;100.00
58245;BME280;44550;43.864;25.986;2023-04-19T05:38:25;100747.56;;;9.47;100.00
58245;BME280;44550;43.864;25.986;2023-04-19T05:42:30;100745.81;;;9.44;100.00
58245;BME280;44550;43.864;25.986;2023-04-19T05:46:33;100751.16;;;9.56;100.00
58245;BME280;44550;43.864;25.986;2023-04-19T05:50:34;100748.50;;;9.52;100.00
58245;BME280;44550;43.864;25.986;2023-04-19T05:54:44;100742.53;;;9.60;100.00
58245;BME280;44550;43.864;25.986;2023-04-19T05:58:52;100737.41;;;9.73;100.00
58245;BME280;44550;43.864;25.986;2023-04-19T06:02:55;100741.63;;;9.60;100.00
58245;BME280;44550;43.864;25.986;2023-04-19T06:07:00;100733.94;;;9.71;100.00
58245;BME280;44550;43.864;25.986;2023-04-19T06:11:06;100744.31;;;9.66;100.00
58245;BME280;44550;43.864;25.986;2023-04-19T06:15:24;100737.25;;;9.56;100.00
58245;BME280;44550;43.864;25.986;2023-04-19T06:19:32;100727.63;;;9.52;100.00
58245;BME280;44550;43.864;25.986;2023-04-19T06:23:32;100733.03;;;9.69;100.00
58245;BME280;44550;43.864;25.986;2023-04-19T06:27:52;100727.88;;;9.75;100.00
58245;BME280;44550;43.864;25.986;2023-04-19T06:31:58;100733.13;;;9.78;100.00
58245;BME280;44550;43.864;25.986;2023-04-19T06:36:19;100731.31;;;9.71;100.00
58245;BME280;44550;43.864;25.986;2023-04-19T06:40:23;100730.72;;;10.01;100.00
58245;BME280;44550;43.864;25.986;2023-04-19T06:44:34;100737.75;;;10.08;100.00
58245;BME280;44550;43.864;25.986;2023-04-19T06:48:33;100740.38;;;10.08;100.00
58245;BME280;44550;43.864;25.986;2023-04-19T06:52:38;100735.22;;;10.17;100.00
58245;BME280;44550;43.864;25.986;2023-04-19T06:56:43;100735.50;;;10.49;100.00
58245;BME280;44550;43.864;25.986;2023-04-19T07:00:46;100743.47;;;10.68;100.00
58245;BME280;44550;43.864;25.986;2023-04-19T07:04:50;100740.16;;;11.01;100.00
58245;BME280;44550;43.864;25.986;2023-04-19T07:08:53;100742.91;;;11.27;100.00
58245;BME280;44550;43.864;25.986;2023-04-19T07:12:54;100738.53;;;11.23;100.00
58245;BME280;44550;43.864;25.986;2023-04-19T07:16:57;100744.72;;;11.46;100.00
58245;BME280;44550;43.864;25.986;2023-04-19T07:20:58;100743.88;;;11.49;100.00
58245;BME280;44550;43.864;25.986;2023-04-19T07:24:59;100744.72;;;11.43;100.00
58245;BME280;44550;43.864;25.986;2023-04-19T07:29:02;100743.88;;;11.55;100.00
58245;BME280;44550;43.864;25.986;2023-04-19T07:33:04;100742.97;;;11.47;100.00
58245;BME280;44550;43.864;25.986;2023-04-19T07:37:09;100746.47;;;11.52;100.00
58245;BME280;44550;43.864;25.986;2023-04-19T07:41:15;100746.47;;;11.52;100.00
58245;BME280;44550;43.864;25.986;2023-04-19T07:45:15;100753.56;;;11.79;100.00
58245;BME280;44550;43.864;25.986;2023-04-19T07:49:22;100756.13;;;11.62;100.00
58245;BME280;44550;43.864;25.986;2023-04-19T07:53:22;100752.59;;;11.54;100.00
58245;BME280;44550;43.864;25.986;2023-04-19T07:57:31;100758.81;;;11.88;100.00
58245;BME280;44550;43.864;25.986;2023-04-19T08:01:32;100756.22;;;11.97;100.00
58245;BME280;44550;43.864;25.986;2023-04-19T08:05:35;100757.09;;;12.35;100.00
58245;BME280;44550;43.864;25.986;2023-04-19T08:09:36;100750.06;;;12.77;100.00
58245;BME280;44550;43.864;25.986;2023-04-19T08:13:36;100755.34;;;12.75;100.00
58245;BME280;44550;43.864;25.986;2023-04-19T08:18:01;100746.47;;;13.10;100.00
58245;BME280;44550;43.864;25.986;2023-04-19T08:22:06;100753.41;;;13.38;100.00
58245;BME280;44550;43.864;25.986;2023-04-19T08:26:06;100754.34;;;13.25;100.00
58245;BME280;44550;43.864;25.986;2023-04-19T08:30:12;100755.13;;;13.44;100.00
58245;BME280;44550;43.864;25.986;2023-04-19T08:34:15;100756.94;;;13.33;100.00
58245;BME280;44550;43.864;25.986;2023-04-19T08:38:20;100751.75;;;13.01;100.00
58245;BME280;44550;43.864;25.986;2023-04-19T08:42:23;100744.69;;;13.35;100.00
58245;BME280;44550;43.864;25.986;2023-04-19T08:46:33;100743.59;;;13.74;100.00
58245;BME280;44550;43.864;25.986;2023-04-19T08:50:33;100744.22;;;14.10;100.00
58245;BME280;44550;43.864;25.986;2023-04-19T08:54:55;100737.75;;;14.52;100.00
58245;BME280;44550;43.864;25.986;2023-04-19T08:58:58;100743.13;;;15.22;100.00
58245;BME280;44550;43.864;25.986;2023-04-19T09:03:07;100739.50;;;15.34;100.00
58245;BME280;44550;43.864;25.986;2023-04-19T09:07:21;100753.31;;;14.75;100.00
58245;BME280;44550;43.864;25.986;2023-04-19T09:11:26;100745.69;;;14.43;100.00
58245;BME280;44550;43.864;25.986;2023-04-19T09:15:35;100746.84;;;14.10;100.00
58245;BME280;44550;43.864;25.986;2023-04-19T09:19:44;100757.78;;;14.70;100.00
58245;BME280;44550;43.864;25.986;2023-04-19T09:23:47;100752.34;;;14.83;100.00
58245;BME280;44550;43.864;25.986;2023-04-19T09:27:50;100755.47;;;15.18;100.00
58245;BME280;44550;43.864;25.986;2023-04-19T09:31:57;100744.34;;;15.63;100.00
58245;BME280;44550;43.864;25.986;2023-04-19T09:36:01;100745.16;;;16.28;98.70
58245;BME280;44550;43.864;25.986;2023-04-19T09:40:11;100741.69;;;16.26;92.15
58245;BME280;44550;43.864;25.986;2023-04-19T09:44:22;100752.38;;;16.17;97.98
58245;BME280;44550;43.864;25.986;2023-04-19T09:48:25;100748.78;;;15.61;94.31
58245;BME280;44550;43.864;25.986;2023-04-19T09:52:26;100746.28;;;16.12;92.11
58245;BME280;44550;43.864;25.986;2023-04-19T09:56:26;100744.97;;;16.39;85.80
58245;BME280;44550;43.864;25.986;2023-04-19T10:00:32;100744.97;;;16.40;83.80
58245;BME280;44550;43.864;25.986;2023-04-19T10:04:44;100733.91;;;16.17;86.25
58245;BME280;44550;43.864;25.986;2023-04-19T10:09:06;100739.19;;;15.57;84.68
58245;BME280;44550;43.864;25.986;2023-04-19T10:13:08;100732.59;;;15.88;85.34
58245;BME280;44550;43.864;25.986;2023-04-19T10:17:18;100729.25;;;15.77;84.38
58245;BME280;44550;43.864;25.986;2023-04-19T10:21:22;100735.47;;;15.73;86.17
58245;BME280;44550;43.864;25.986;2023-04-19T10:25:26;100740.84;;;15.62;86.15
58245;BME280;44550;43.864;25.986;2023-04-19T10:33:54;100721.72;;;15.48;86.22
58245;BME280;44550;43.864;25.986;2023-04-19T10:38:03;100721.28;;;15.82;84.63
58245;BME280;44550;43.864;25.986;2023-04-19T10:42:13;100725.31;;;16.04;84.57
58245;BME280;44550;43.864;25.986;2023-04-19T10:50:59;100723.31;;;16.20;83.75
58245;BME280;44550;43.864;25.986;2023-04-19T10:55:08;100721.88;;;16.01;83.45
58245;BME280;44550;43.864;25.986;2023-04-19T10:59:16;100723.78;;;15.91;84.60
58245;BME280;44550;43.864;25.986;2023-04-19T11:07:49;100723.25;;;15.67;86.37
58245;BME280;44550;43.864;25.986;2023-04-19T11:11:53;100731.81;;;15.17;88.68
58245;BME280;44550;43.864;25.986;2023-04-19T11:16:08;100731.88;;;15.09;90.67
58245;BME280;44550;43.864;25.986;2023-04-19T11:20:15;100718.38;;;15.37;89.74
58245;BME280;44550;43.864;25.986;2023-04-19T11:24:24;100714.91;;;15.32;90.55
58245;BME280;44550;43.864;25.986;2023-04-19T11:28:28;100710.38;;;15.43;90.64
58245;BME280;44550;43.864;25.986;2023-04-19T11:32:36;100706.53;;;15.65;90.13
58245;BME280;44550;43.864;25.986;2023-04-19T11:36:50;100704.78;;;15.66;89.74
58245;BME280;44550;43.864;25.986;2023-04-19T11:40:59;100704.72;;;15.72;87.73
58245;BME280;44550;43.864;25.986;2023-04-19T11:45:04;100693.31;;;15.73;88.34
58245;BME280;44550;43.864;25.986;2023-04-19T11:49:26;100681.63;;;15.89;86.92
58245;BME280;44550;43.864;25.986;2023-04-19T11:53:26;100679.75;;;15.94;87.57
58245;BME280;44550;43.864;25.986;2023-04-19T11:57:32;100672.34;;;15.61;89.05
58245;BME280;44550;43.864;25.986;2023-04-19T12:01:35;100659.84;;;15.77;88.08
58245;BME280;44550;43.864;25.986;2023-04-19T12:05:35;100668.22;;;16.03;86.14
58245;BME280;44550;43.864;25.986;2023-04-19T12:09:38;100660.88;;;16.20;84.67
58245;BME280;44550;43.864;25.986;2023-04-19T12:13:40;100648.91;;;16.49;85.38
58245;BME280;44550;43.864;25.986;2023-04-19T12:17:54;100644.50;;;16.95;80.50
58245;BME280;44550;43.864;25.986;2023-04-19T12:22:03;100634.91;;;16.90;79.13
58245;BME280;44550;43.864;25.986;2023-04-19T12:26:07;100626.13;;;16.90;79.61
58245;BME280;44550;43.864;25.986;2023-04-19T12:30:11;100618.19;;;16.90;79.68
58245;BME280;44550;43.864;25.986;2023-04-19T12:34:12;100606.69;;;17.33;76.76
58245;BME280;44550;43.864;25.986;2023-04-19T12:38:12;100605.38;;;17.51;77.00
58245;BME280;44550;43.864;25.986;2023-04-19T12:42:35;100603.34;;;17.62;76.12
58245;BME280;44550;43.864;25.986;2023-04-19T12:46:37;100607.66;;;17.66;75.70
58245;BME280;44550;43.864;25.986;2023-04-19T12:50:37;100596.03;;;18.07;72.58
58245;BME280;44550;43.864;25.986;2023-04-19T12:54:38;100599.59;;;18.06;73.19
58245;BME280;44550;43.864;25.986;2023-04-19T12:58:39;100596.78;;;18.13;72.50
58245;BME280;44550;43.864;25.986;2023-04-19T13:02:42;100594.72;;;18.24;71.62
58245;BME280;44550;43.864;25.986;2023-04-19T13:06:45;100589.59;;;17.85;72.29
58245;BME280;44550;43.864;25.986;2023-04-19T13:10:45;100578.72;;;17.96;72.19
58245;BME280;44550;43.864;25.986;2023-04-19T13:14:46;100587.56;;;17.59;73.73
58245;BME280;44550;43.864;25.986;2023-04-19T13:18:51;100583.47;;;17.83;73.41
58245;BME280;44550;43.864;25.986;2023-04-19T13:22:51;100571.91;;;18.20;71.21
58245;BME280;44550;43.864;25.986;2023-04-19T13:26:51;100577.69;;;18.01;71.78
58245;BME280;44550;43.864;25.986;2023-04-19T13:30:55;100573.38;;;17.97;68.15
58245;BME280;44550;43.864;25.986;2023-04-19T13:34:57;100573.53;;;18.24;68.00
58245;BME280;44550;43.864;25.986;2023-04-19T13:38:58;100562.13;;;18.54;68.01
58245;BME280;44550;43.864;25.986;2023-04-19T13:42:59;100567.84;;;18.39;66.74
58245;BME280;44550;43.864;25.986;2023-04-19T13:47:07;100561.22;;;17.90;68.38
58245;BME280;44550;43.864;25.986;2023-04-19T13:55:51;100560.44;;;18.19;69.56
58245;BME280;44550;43.864;25.986;2023-04-19T13:59:59;100556.31;;;18.42;68.26
58245;BME280;44550;43.864;25.986;2023-04-19T14:04:02;100549.84;;;18.50;67.90
58245;BME280;44550;43.864;25.986;2023-04-19T14:08:03;100549.50;;;18.63;67.18
58245;BME280;44550;43.864;25.986;2023-04-19T14:12:06;100547.28;;;19.08;64.98
58245;BME280;44550;43.864;25.986;2023-04-19T14:16:07;100545.34;;;19.13;64.89
58245;BME280;44550;43.864;25.986;2023-04-19T14:20:08;100548.00;;;18.85;64.98
58245;BME280;44550;43.864;25.986;2023-04-19T14:24:08;100535.28;;;18.96;64.28
58245;BME280;44550;43.864;25.986;2023-04-19T14:28:10;100545.22;;;18.59;65.81
58245;BME280;44550;43.864;25.986;2023-04-19T14:32:10;100538.31;;;18.84;66.71
58245;BME280;44550;43.864;25.986;2023-04-19T14:36:24;100544.06;;;18.67;65.58
58245;BME280;44550;43.864;25.986;2023-04-19T14:40:27;100540.41;;;18.42;66.07
58245;BME280;44550;43.864;25.986;2023-04-19T14:44:33;100541.72;;;18.57;67.00
58245;BME280;44550;43.864;25.986;2023-04-19T14:48:33;100544.34;;;18.58;66.33
58245;BME280;44550;43.864;25.986;2023-04-19T14:52:33;100545.66;;;18.43;66.25
58245;BME280;44550;43.864;25.986;2023-04-19T14:56:36;100528.13;;;18.39;66.10
58245;BME280;44550;43.864;25.986;2023-04-19T15:00:40;100536.84;;;18.43;66.91
58245;BME280;44550;43.864;25.986;2023-04-19T15:04:41;100544.97;;;18.04;67.29
58245;BME280;44550;43.864;25.986;2023-04-19T15:08:43;100542.16;;;18.12;67.98
58245;BME280;44550;43.864;25.986;2023-04-19T15:12:53;100544.84;;;18.41;66.40
58245;BME280;44550;43.864;25.986;2023-04-19T15:16:55;100555.56;;;18.04;66.21
58245;BME280;44550;43.864;25.986;2023-04-19T15:20:56;100540.38;;;18.11;66.86
58245;BME280;44550;43.864;25.986;2023-04-19T15:24:56;100549.69;;;18.25;67.07
58245;BME280;44550;43.864;25.986;2023-04-19T15:28:59;100547.06;;;18.24;65.30
58245;BME280;44550;43.864;25.986;2023-04-19T15:33:05;100546.66;;;18.39;65.84
58245;BME280;44550;43.864;25.986;2023-04-19T15:37:08;100540.38;;;17.78;66.51
58245;BME280;44550;43.864;25.986;2023-04-19T15:41:08;100545.19;;;17.96;67.37
58245;BME280;44550;43.864;25.986;2023-04-19T15:45:11;100534.00;;;18.18;66.43
58245;BME280;44550;43.864;25.986;2023-04-19T15:49:13;100546.91;;;18.30;65.51
58245;BME280;44550;43.864;25.986;2023-04-19T15:53:14;100538.47;;;18.47;64.77
58245;BME280;44550;43.864;25.986;2023-04-19T15:57:15;100531.16;;;18.25;65.11
58245;BME280;44550;43.864;25.986;2023-04-19T16:01:16;100533.41;;;18.39;64.68
58245;BME280;44550;43.864;25.986;2023-04-19T16:05:22;100525.66;;;18.33;63.79
58245;BME280;44550;43.864;25.986;2023-04-19T16:09:24;100532.97;;;18.25;64.46
58245;BME280;44550;43.864;25.986;2023-04-19T16:13:24;100529.56;;;18.20;64.31
58245;BME280;44550;43.864;25.986;2023-04-19T16:17:26;100529.78;;;18.12;64.64
58245;BME280;44550;43.864;25.986;2023-04-19T16:21:31;100520.75;;;18.19;64.32
58245;BME280;44550;43.864;25.986;2023-04-19T16:25:31;100520.00;;;18.14;63.91
58245;BME280;44550;43.864;25.986;2023-04-19T16:29:36;100525.31;;;17.81;64.73
58245;BME280;44550;43.864;25.986;2023-04-19T16:33:39;100525.34;;;17.80;65.01
58245;BME280;44550;43.864;25.986;2023-04-19T16:37:58;100530.34;;;17.56;65.64
58245;BME280;44550;43.864;25.986;2023-04-19T16:42:00;100529.47;;;17.56;65.59
58245;BME280;44550;43.864;25.986;2023-04-19T16:46:02;100529.94;;;17.72;66.18
58245;BME280;44550;43.864;25.986;2023-04-19T16:50:10;100537.50;;;17.87;64.81
58245;BME280;44550;43.864;25.986;2023-04-19T16:54:16;100541.09;;;17.84;65.36
58245;BME280;44550;43.864;25.986;2023-04-19T16:58:20;100532.97;;;17.92;65.08
58245;BME280;44550;43.864;25.986;2023-04-19T17:02:33;100540.97;;;17.89;64.97
58245;BME280;44550;43.864;25.986;2023-04-19T17:06:35;100546.13;;;17.95;65.49
58245;BME280;44550;43.864;25.986;2023-04-19T17:10:48;100544.34;;;17.94;65.19
58245;BME280;44550;43.864;25.986;2023-04-19T17:14:51;100541.78;;;17.91;65.70
58245;BME280;44550;43.864;25.986;2023-04-19T17:23:20;100547.38;;;17.80;66.38
58245;BME280;44550;43.864;25.986;2023-04-19T17:27:32;100555.44;;;17.74;66.79
58245;BME280;44550;43.864;25.986;2023-04-19T17:31:42;100558.31;;;17.65;67.61
58245;BME280;44550;43.864;25.986;2023-04-19T17:35:45;100557.84;;;17.48;69.13
58245;BME280;44550;43.864;25.986;2023-04-19T17:39:46;100562.97;;;17.18;70.71
58245;BME280;44550;43.864;25.986;2023-04-19T17:43:49;100572.06;;;17.05;71.96
58245;BME280;44550;43.864;25.986;2023-04-19T17:47:52;100579.19;;;17.01;72.54
58245;BME280;44550;43.864;25.986;2023-04-19T17:51:53;100583.66;;;16.99;72.35
58245;BME280;44550;43.864;25.986;2023-04-19T17:55:54;100583.69;;;16.98;72.10
58245;BME280;44550;43.864;25.986;2023-04-19T17:59:56;100590.91;;;16.89;71.64
58245;BME280;44550;43.864;25.986;2023-04-19T18:03:59;100616.78;;;17.14;70.70
58245;BME280;44550;43.864;25.986;2023-04-19T18:08:00;100622.75;;;16.83;76.50
58245;BME280;44550;43.864;25.986;2023-04-19T18:12:00;100621.22;;;16.68;77.70
58245;BME280;44550;43.864;25.986;2023-04-19T18:16:04;100635.09;;;16.81;76.77
58245;BME280;44550;43.864;25.986;2023-04-19T18:20:08;100640.63;;;16.21;85.70
58245;BME280;44550;43.864;25.986;2023-04-19T18:24:13;100647.84;;;16.11;87.74
58245;BME280;44550;43.864;25.986;2023-04-19T18:28:12;100656.13;;;15.90;90.49
58245;BME280;44550;43.864;25.986;2023-04-19T18:32:15;100654.38;;;15.30;96.41
58245;BME280;44550;43.864;25.986;2023-04-19T18:36:15;100668.63;;;15.12;100.00
58245;BME280;44550;43.864;25.986;2023-04-19T18:40:20;100673.22;;;14.96;100.00
58245;BME280;44550;43.864;25.986;2023-04-19T18:44:21;100676.91;;;14.80;100.00
58245;BME280;44550;43.864;25.986;2023-04-19T18:48:43;100684.28;;;14.46;100.00
58245;BME280;44550;43.864;25.986;2023-04-19T18:52:43;100676.50;;;14.35;100.00
58245;BME280;44550;43.864;25.986;2023-04-19T18:56:43;100673.13;;;14.22;100.00
58245;BME280;44550;43.864;25.986;2023-04-19T19:01:07;100669.47;;;14.37;100.00
58245;BME280;44550;43.864;25.986;2023-04-19T19:05:19;100668.81;;;14.15;100.00
58245;BME280;44550;43.864;25.986;2023-04-19T19:09:22;100662.97;;;13.81;100.00
58245;BME280;44550;43.864;25.986;2023-04-19T19:13:23;100659.59;;;13.62;100.00
58245;BME280;44550;43.864;25.986;2023-04-19T19:17:26;100649.91;;;13.67;100.00
58245;BME280;44550;43.864;25.986;2023-04-19T19:21:29;100657.78;;;13.72;100.00
58245;BME280;44550;43.864;25.986;2023-04-19T19:25:29;100665.59;;;13.79;100.00
58245;BME280;44550;43.864;25.986;2023-04-19T19:29:29;100659.31;;;13.97;100.00
58245;BME280;44550;43.864;25.986;2023-04-19T19:33:36;100653.25;;;13.89;100.00
58245;BME280;44550;43.864;25.986;2023-04-19T19:37:39;100646.31;;;13.79;100.00
58245;BME280;44550;43.864;25.986;2023-04-19T19:41:40;100648.88;;;13.88;100.00
58245;BME280;44550;43.864;25.986;2023-04-19T19:45:44;100650.59;;;13.91;100.00
58245;BME280;44550;43.864;25.986;2023-04-19T19:49:44;100649.00;;;13.70;100.00
58245;BME280;44550;43.864;25.986;2023-04-19T19:54:08;100649.84;;;13.78;100.00
58245;BME280;44550;43.864;25.986;2023-04-19T19:58:17;100650.72;;;13.75;100.00
58245;BME280;44550;43.864;25.986;2023-04-19T20:02:38;100652.53;;;13.69;100.00
58245;BME280;44550;43.864;25.986;2023-04-19T20:06:52;100651.72;;;13.59;100.00
58245;BME280;44550;43.864;25.986;2023-04-19T20:11:16;100660.47;;;13.61;100.00
58245;BME280;44550;43.864;25.986;2023-04-19T20:15:21;100658.63;;;13.75;100.00
58245;BME280;44550;43.864;25.986;2023-04-19T20:19:21;100657.88;;;13.56;100.00
58245;BME280;44550;43.864;25.986;2023-04-19T20:23:22;100662.31;;;13.47;100.00
58245;BME280;44550;43.864;25.986;2023-04-19T20:27:30;100658.75;;;13.58;100.00
58245;BME280;44550;43.864;25.986;2023-04-19T20:31:33;100666.56;;;13.68;100.00
58245;BME280;44550;43.864;25.986;2023-04-19T20:35:33;100665.59;;;13.78;100.00
58245;BME280;44550;43.864;25.986;2023-04-19T20:39:34;100671.66;;;13.86;100.00
58245;BME280;44550;43.864;25.986;2023-04-19T20:43:38;100673.38;;;13.90;100.00
58245;BME280;44550;43.864;25.986;2023-04-19T20:47:39;100671.56;;;14.01;100.00
58245;BME280;44550;43.864;25.986;2023-04-19T20:51:40;100672.28;;;14.19;100.00
58245;BME280;44550;43.864;25.986;2023-04-19T20:55:42;100673.00;;;14.34;100.00
58245;BME280;44550;43.864;25.986;2023-04-19T20:59:45;100673.59;;;14.64;100.00
58245;BME280;44550;43.864;25.986;2023-04-19T21:03:49;100670.66;;;14.92;100.00
58245;BME280;44550;43.864;25.986;2023-04-19T21:07:50;100664.56;;;14.88;100.00
58245;BME280;44550;43.864;25.986;2023-04-19T21:11:51;100667.38;;;14.71;100.00
58245;BME280;44550;43.864;25.986;2023-04-19T21:15:54;100664.97;;;14.47;100.00
58245;BME280;44550;43.864;25.986;2023-04-19T21:19:54;100666.59;;;14.65;100.00
58245;BME280;44550;43.864;25.986;2023-04-19T21:23:54;100670.47;;;15.07;100.00
58245;BME280;44550;43.864;25.986;2023-04-19T21:27:57;100661.94;;;15.53;100.00